TAF Text Data
IDs:
Format:
Raw Decoded Include METAR

Data at: 0613 UTC 07 Dec 2022

KMHT 070534Z 0706/0806 13008KT 6SM -SHRA BR BKN010 OVC040
  TEMPO 0706/0708 3SM RA SCT010 BKN040
  FM071000 11006KT 3SM RA BR OVC007
  FM071500 12004KT 4SM SHRA BR OVC004
  FM072200 15003KT 2SM -DZ BR OVC003
  FM080200 00000KT 1/2SM FG OVC003